Time;durP1;ratioP1;P1;durP2;ratioP2;P2;SDS_P1;SDS_P2;PMS_P1;PMS_P2;Temp;Humidity;BMP_temperature;BMP_pressure;BME280_temperature;BME280_humidity;BME280_pressure;Samples;Min_cycle;Max_cycle;Signal;HPM_P1;HPM_P2
2022/03/31 04:07:56;;;;;;;25.17;11.75;;;;;;;14.09;61.17;98694.06;5605106;31;80699;-56
2022/03/31 04:10:59;;;;;;;20.90;12.43;;;;;;;14.09;61.17;98694.06;5583517;32;33359;-56
2022/03/31 04:14:01;;;;;;;25.27;13.13;;;;;;;13.55;62.36;98702.56;5583609;32;33587;-57
2022/03/31 04:17:04;;;;;;;22.98;12.57;;;;;;;13.62;62.49;98694.69;5582395;31;33582;-57
2022/03/31 04:20:06;;;;;;;20.55;12.75;;;;;;;13.56;62.01;98702.22;5583352;31;34120;-57
2022/03/31 04:23:09;;;;;;;20.73;11.77;;;;;;;13.51;62.92;98697.09;5583229;32;34253;-57
2022/03/31 04:26:11;;;;;;;23.77;13.60;;;;;;;13.62;62.21;98698.16;5583275;31;34078;-57
2022/03/31 04:29:14;;;;;;;20.17;12.25;;;;;;;13.55;62.46;98699.88;5563874;32;33675;-57
2022/03/31 04:32:16;;;;;;;24.40;12.73;;;;;;;13.51;62.25;98693.59;5563904;32;34353;-57
2022/03/31 04:35:19;;;;;;;21.50;12.70;;;;;;;13.55;62.47;98694.50;5563515;32;33647;-57
2022/03/31 04:38:21;;;;;;;22.62;12.57;;;;;;;13.53;62.50;98688.66;5563733;32;33758;-57
2022/03/31 04:41:23;;;;;;;22.73;12.55;;;;;;;13.67;61.92;98697.13;5563827;32;34324;-56
2022/03/31 04:44:25;;;;;;;23.92;12.50;;;;;;;13.73;61.92;98693.09;5563680;32;33197;-57
2022/03/31 04:47:29;;;;;;;20.50;12.10;;;;;;;13.80;61.35;98687.88;5563454;32;33610;-57
2022/03/31 04:50:31;;;;;;;18.60;13.05;;;;;;;13.65;62.84;98693.25;5580074;32;33285;-57
2022/03/31 04:53:33;;;;;;;25.15;13.38;;;;;;;13.63;62.47;98694.34;5581329;31;34216;-57
2022/03/31 04:56:38;;;;;;;23.40;12.98;;;;;;;13.75;62.31;98690.06;5582502;32;33326;-57
2022/03/31 04:59:41;;;;;;;22.73;12.98;;;;;;;13.65;62.17;98685.16;5581371;32;33394;-57
2022/03/31 05:02:43;;;;;;;22.90;13.85;;;;;;;13.57;63.74;98689.53;5582273;32;33722;-57
2022/03/31 05:05:45;;;;;;;22.20;13.18;;;;;;;13.65;63.68;98688.63;5580400;31;34306;-57
2022/03/31 05:08:48;;;;;;;28.40;14.75;;;;;;;13.76;62.46;98681.63;5581836;31;33327;-57
2022/03/31 05:11:50;;;;;;;21.20;13.10;;;;;;;13.77;61.42;98683.19;5580629;31;33724;-57
2022/03/31 05:14:52;;;;;;;23.98;13.80;;;;;;;13.73;62.53;98685.00;5580447;31;34313;-57
2022/03/31 05:17:55;;;;;;;22.25;13.13;;;;;;;13.72;62.56;98675.37;5567914;32;33579;-57
2022/03/31 05:20:57;;;;;;;22.02;14.73;;;;;;;13.78;62.62;98681.31;5568351;32;33187;-56
2022/03/31 05:24:03;;;;;;;;;;;;;;;13.75;63.18;98685.47;5566041;32;33753;-57
2022/03/31 05:27:05;;;;;;;27.73;13.70;;;;;;;13.67;64.63;98682.91;5567233;31;34758;-57
2022/03/31 05:30:08;;;;;;;24.08;15.13;;;;;;;13.62;65.35;98682.00;5566318;32;33787;-57
2022/03/31 05:33:11;;;;;;;21.10;14.40;;;;;;;13.74;64.07;98689.28;5566850;32;34362;-57
2022/03/31 05:36:13;;;;;;;27.25;14.85;;;;;;;13.74;63.72;98683.09;5553965;32;33697;-57
2022/03/31 05:39:16;;;;;;;25.27;14.55;;;;;;;13.71;63.61;98691.84;5558934;32;33808;-57
2022/03/31 05:42:19;;;;;;;28.77;14.65;;;;;;;13.80;62.96;98674.44;5563293;32;33347;-57
2022/03/31 05:45:22;;;;;;;24.37;15.35;;;;;;;13.84;61.58;98672.63;5567475;32;33853;-57
2022/03/31 05:48:25;;;;;;;25.50;15.55;;;;;;;13.83;62.18;98681.03;5568323;32;34330;-57
2022/03/31 05:51:27;;;;;;;29.25;14.68;;;;;;;13.79;61.82;98670.16;5564815;32;34051;-57
2022/03/31 05:54:30;;;;;;;24.40;16.00;;;;;;;13.76;63.28;98670.84;5564204;32;33762;-57
2022/03/31 05:57:34;;;;;;;24.95;15.05;;;;;;;13.72;64.49;98671.91;5567551;32;33623;-57
2022/03/31 06:00:37;;;;;;;23.65;15.35;;;;;;;13.67;64.99;98678.28;5567668;32;33268;-57
2022/03/31 06:03:39;;;;;;;23.02;16.02;;;;;;;13.73;65.83;98682.31;5567498;32;33723;-57
2022/03/31 06:06:44;;;;;;;29.30;15.95;;;;;;;13.67;66.43;98683.69;5566379;32;33731;-57
2022/03/31 06:18:48;;;;;;;33.05;15.40;;;;;;;13.44;67.65;98686.09;5490853;32;35265;-57
2022/03/31 06:21:51;;;;;;;26.67;15.77;;;;;;;13.40;67.93;98683.28;5548228;31;33173;-57
2022/03/31 06:24:53;;;;;;;28.65;15.38;;;;;;;13.38;67.09;98690.94;5567771;32;33668;-57
2022/03/31 06:32:31;;;;;;;34.40;17.75;;;;;;;13.45;68.87;98708.44;5568037;32;35261;-57
2022/03/31 06:35:33;;;;;;;36.67;17.42;;;;;;;13.43;69.54;98710.66;5568072;32;33519;-57
2022/03/31 06:38:35;;;;;;;25.15;18.00;;;;;;;13.50;69.85;98706.28;5562857;32;32645;-57
2022/03/31 06:41:38;;;;;;;28.50;18.02;;;;;;;13.44;69.86;98714.91;5561262;32;34424;-57
2022/03/31 06:44:42;;;;;;;26.67;17.23;;;;;;;13.40;71.71;98717.50;5553151;32;33311;-57
2022/03/31 06:47:45;;;;;;;36.97;18.42;;;;;;;13.38;72.54;98725.16;5552397;32;33511;-57
2022/03/31 06:50:47;;;;;;;32.03;19.37;;;;;;;13.33;74.17;98723.47;5563635;32;33550;-56
2022/03/31 06:53:50;;;;;;;37.80;20.10;;;;;;;13.25;74.55;98728.97;5568465;32;33538;-57
2022/03/31 06:56:58;;;;;;;34.10;18.58;;;;;;;13.13;76.72;98732.41;5567337;32;33640;-57
2022/03/31 07:00:03;;;;;;;28.42;18.73;;;;;;;13.16;76.26;98729.06;5568478;32;33660;-57
2022/03/31 07:03:05;;;;;;;28.42;19.75;;;;;;;13.13;76.17;98725.12;5567379;32;33652;-56
2022/03/31 07:06:08;;;;;;;30.12;18.05;;;;;;;13.14;76.20;98721.34;5567846;32;33682;-57
2022/03/31 07:09:10;;;;;;;31.05;18.75;;;;;;;13.15;75.44;98728.28;5567539;32;33566;-57
2022/03/31 07:12:13;;;;;;;29.52;17.58;;;;;;;13.29;73.28;98725.28;5549980;32;33628;-57
2022/03/31 07:15:15;;;;;;;28.80;17.77;;;;;;;13.21;74.25;98725.34;5562256;32;34097;-57
2022/03/31 07:18:17;;;;;;;32.05;17.92;;;;;;;13.12;73.91;98718.19;5568842;32;33658;-57
2022/03/31 07:21:19;;;;;;;33.58;18.75;;;;;;;13.02;76.16;98723.25;5553792;32;33777;-57
2022/03/31 07:24:22;;;;;;;26.65;16.73;;;;;;;13.01;75.70;98711.69;5557849;32;33546;-57
2022/03/31 07:27:24;;;;;;;36.55;18.35;;;;;;;12.93;75.87;98712.59;5568114;32;34222;-57
2022/03/31 07:30:27;;;;;;;27.62;18.85;;;;;;;12.94;75.27;98717.62;5568204;32;34296;-57
2022/03/31 07:33:30;;;;;;;29.23;18.23;;;;;;;13.00;74.87;98714.72;5567280;32;33708;-57
2022/03/31 07:36:32;;;;;;;27.45;18.60;;;;;;;12.94;75.43;98711.47;5567984;32;33373;-57
2022/03/31 07:39:35;;;;;;;29.48;18.12;;;;;;;12.97;76.12;98704.63;5567830;32;34316;-57
2022/03/31 07:42:38;;;;;;;27.00;17.50;;;;;;;13.00;74.75;98698.56;5566892;32;34305;-57
2022/03/31 07:45:41;;;;;;;31.45;18.87;;;;;;;13.04;73.42;98700.25;5554964;32;33648;-57
2022/03/31 07:48:43;;;;;;;32.42;18.60;;;;;;;12.91;75.91;98702.19;5551717;32;33782;-57
2022/03/31 07:51:45;;;;;;;24.98;17.45;;;;;;;12.86;74.27;98701.59;5567055;32;34751;-57
2022/03/31 07:54:48;;;;;;;26.10;17.58;;;;;;;12.89;76.07;98700.94;5564987;32;33236;-57
2022/03/31 07:57:51;;;;;;;29.60;19.55;;;;;;;12.99;76.31;98703.19;5558902;32;33379;-57
2022/03/31 08:00:54;;;;;;;30.27;18.27;;;;;;;13.07;74.28;98702.25;5565316;32;33418;-57
2022/03/31 08:03:56;;;;;;;27.85;17.65;;;;;;;13.02;77.58;98718.66;5564626;32;33674;-57
2022/03/31 08:06:59;;;;;;;27.33;19.23;;;;;;;13.14;75.52;98705.19;5560909;32;34199;-57
2022/03/31 08:10:04;;;;;;;29.20;19.15;;;;;;;13.11;75.99;98716.62;5562529;32;33642;-57
2022/03/31 08:13:06;;;;;;;32.47;19.58;;;;;;;13.03;75.39;98704.06;5548378;32;33313;-57
2022/03/31 08:16:09;;;;;;;30.70;18.12;;;;;;;12.98;75.93;98696.25;5548164;32;33595;-57
2022/03/31 08:19:13;;;;;;;23.62;17.55;;;;;;;13.14;75.04;98699.81;5552756;32;33624;-56
2022/03/31 08:22:17;;;;;;;29.87;18.92;;;;;;;13.14;77.22;98689.06;5556524;32;33710;-57
2022/03/31 08:25:20;;;;;;;29.48;18.62;;;;;;;12.96;76.06;98686.94;5565108;32;34269;-57
2022/03/31 08:28:25;;;;;;;32.78;18.90;;;;;;;13.12;75.68;98683.22;5557980;31;33228;-57
2022/03/31 08:31:27;;;;;;;30.20;19.35;;;;;;;13.25;75.75;98669.78;5556006;32;33245;-57
2022/03/31 08:34:30;;;;;;;26.85;16.83;;;;;;;13.44;75.68;98653.00;5566854;32;33759;-56
2022/03/31 08:37:33;;;;;;;30.95;16.70;;;;;;;13.58;74.27;98651.53;5565601;32;33258;-57
2022/03/31 08:40:36;;;;;;;30.48;18.02;;;;;;;13.53;74.21;98654.44;5565898;32;33736;-57
2022/03/31 08:43:42;;;;;;;27.27;16.73;;;;;;;13.37;76.67;98656.28;5566072;32;33300;-57
2022/03/31 08:46:44;;;;;;;27.92;16.12;;;;;;;13.31;75.74;98658.44;5565052;32;33891;-57
2022/03/31 08:49:47;;;;;;;30.33;16.08;;;;;;;13.32;76.10;98654.63;5565766;32;33309;-57
2022/03/31 08:52:50;;;;;;;28.02;14.85;;;;;;;13.41;76.46;98659.87;5567514;32;34307;-57
2022/03/31 08:55:52;;;;;;;25.90;15.95;;;;;;;13.38;76.77;98647.88;5568867;32;33797;-57
2022/03/31 08:58:55;;;;;;;27.83;16.55;;;;;;;13.46;76.07;98648.88;5564936;32;34310;-57
2022/03/31 09:01:57;;;;;;;29.83;15.75;;;;;;;13.53;75.42;98640.97;5561328;32;33670;-57
2022/03/31 09:05:02;;;;;;;29.77;16.77;;;;;;;13.35;73.94;98637.00;5566662;32;33615;-56
2022/03/31 09:08:05;;;;;;;30.42;17.48;;;;;;;13.28;74.96;98637.59;5567017;32;33602;-57
2022/03/31 09:11:09;;;;;;;30.58;18.58;;;;;;;13.28;75.47;98629.53;5561940;32;33721;-57
2022/03/31 09:14:12;;;;;;;32.45;18.95;;;;;;;13.20;75.46;98624.22;5558019;32;33732;-56
2022/03/31 09:17:16;;;;;;;29.95;17.77;;;;;;;13.13;76.36;98627.50;5567560;32;33713;-57
2022/03/31 09:20:20;;;;;;;29.65;17.45;;;;;;;13.12;76.76;98625.94;5561421;32;33850;-57
2022/03/31 09:23:26;;;;;;;26.60;17.35;;;;;;;13.20;76.63;98618.84;5567056;32;33296;-57
2022/03/31 09:26:31;;;;;;;29.87;17.00;;;;;;;13.27;76.43;98613.69;5568022;32;33788;-57
2022/03/31 09:29:34;;;;;;;25.23;16.77;;;;;;;13.25;76.50;98602.50;5564947;32;33950;-57
2022/03/31 09:32:46;;;;;;;27.10;17.42;;;;;;;13.33;76.15;98612.34;5569140;32;34279;-57
2022/03/31 09:35:56;;;;;;;28.75;16.92;;;;;;;13.18;76.81;98603.06;5568386;32;33652;-57
2022/03/31 09:39:02;;;;;;;30.05;18.27;;;;;;;13.17;77.29;98604.16;5562381;32;33924;-57
2022/03/31 09:42:13;;;;;;;24.85;17.33;;;;;;;13.29;75.74;98595.31;5565547;32;33713;-57
2022/03/31 09:45:15;;;;;;;29.52;17.98;;;;;;;13.16;78.19;98599.91;5561445;32;34324;-57
2022/03/31 09:48:23;;;;;;;33.45;19.62;;;;;;;13.11;78.70;98595.56;5556283;32;34356;-56
2022/03/31 09:51:25;;;;;;;28.48;17.52;;;;;;;13.11;79.39;98586.69;5568002;32;33163;-57
2022/03/31 09:54:32;;;;;;;32.63;16.87;;;;;;;13.12;79.35;98589.06;5568860;32;33647;-57
2022/03/31 09:57:36;;;;;;;26.02;18.00;;;;;;;13.27;77.18;98586.78;5560790;32;33253;-57
2022/03/31 10:00:40;;;;;;;27.85;17.60;;;;;;;13.34;76.55;98589.69;5567573;32;33691;-57
2022/03/31 10:03:42;;;;;;;31.90;17.33;;;;;;;13.33;77.20;98567.37;5568199;32;33744;-57
2022/03/31 10:06:46;;;;;;;34.45;19.20;;;;;;;13.24;76.48;98560.53;5563978;32;34251;-57
2022/03/31 10:09:49;;;;;;;35.22;19.67;;;;;;;13.20;77.89;98571.19;5549805;32;34091;-57
2022/03/31 10:13:03;;;;;;;27.62;18.85;;;;;;;13.26;78.44;98566.41;5566102;32;34493;-56
2022/03/31 10:16:09;;;;;;;33.38;18.42;;;;;;;13.24;79.09;98564.03;5566821;32;34330;-57
2022/03/31 10:19:12;;;;;;;27.95;17.35;;;;;;;13.26;79.48;98569.88;5560869;32;33755;-57
2022/03/31 10:25:40;;;;;;;32.42;18.05;;;;;;;13.26;79.61;98561.78;5564337;32;33238;-57
2022/03/31 10:28:56;;;;;;;24.52;17.52;;;;;;;13.22;80.50;98554.72;5559050;32;34451;-57
2022/03/31 10:31:58;;;;;;;26.30;17.60;;;;;;;13.30;78.85;98559.19;5564038;32;33280;-57
2022/03/31 10:35:01;;;;;;;30.20;19.12;;;;;;;13.31;81.01;98555.38;5564283;32;33675;-57
2022/03/31 10:38:18;;;;;;;34.03;19.30;;;;;;;13.28;82.05;98553.41;5563236;32;33726;-57
2022/03/31 10:41:28;;;;;;;26.67;17.50;;;;;;;13.17;81.50;98544.97;5566752;32;33664;-57
2022/03/31 10:44:31;;;;;;;33.60;19.85;;;;;;;13.13;81.85;98552.94;5564878;32;33674;-57
2022/03/31 10:47:36;;;;;;;29.30;18.10;;;;;;;13.22;81.12;98543.97;5562461;32;34359;-57
2022/03/31 10:50:39;;;;;;;22.20;16.77;;;;;;;13.32;80.59;98541.59;5556664;32;33645;-57
2022/03/31 10:53:48;;;;;;;29.37;15.57;;;;;;;13.24;80.68;98531.75;5557006;32;33632;-57
2022/03/31 10:57:02;;;;;;;23.87;16.25;;;;;;;13.31;78.91;98536.53;5564439;32;34325;-56
2022/03/31 11:00:07;;;;;;;30.50;16.65;;;;;;;13.28;78.31;98534.56;5563214;32;32442;-57
2022/03/31 11:03:09;;;;;;;21.75;16.55;;;;;;;13.21;79.37;98527.03;5562183;32;33346;-57
2022/03/31 11:06:20;;;;;;;30.00;17.33;;;;;;;13.40;78.51;98531.78;5558631;32;34348;-57
2022/03/31 11:09:32;;;;;;;23.77;16.80;;;;;;;13.37;79.83;98517.09;5558616;32;33676;-57
2022/03/31 11:12:36;;;;;;;31.05;17.40;;;;;;;13.42;78.38;98523.41;5558109;32;34379;-57
2022/03/31 11:15:39;;;;;;;28.58;18.00;;;;;;;13.33;78.45;98513.53;5553595;32;33627;-57
2022/03/31 11:18:57;;;;;;;26.35;18.33;;;;;;;13.28;79.14;98518.41;5558666;32;33746;-57
2022/03/31 11:21:59;;;;;;;24.17;16.37;;;;;;;13.27;79.09;98506.06;5556144;32;33738;-57
2022/03/31 11:25:12;;;;;;;26.98;17.52;;;;;;;13.30;78.41;98506.16;5561784;32;33622;-57
2022/03/31 11:28:14;;;;;;;27.45;18.23;;;;;;;13.08;80.06;98507.47;5559517;32;33413;-57
2022/03/31 11:31:17;;;;;;;29.98;18.25;;;;;;;13.04;81.70;98503.88;5550190;32;33644;-57
2022/03/31 11:34:25;;;;;;;29.52;17.62;;;;;;;12.97;82.54;98490.22;5552778;32;33735;-57
2022/03/31 11:37:28;;;;;;;26.15;18.50;;;;;;;13.13;80.62;98491.06;5559637;32;34378;-57
2022/03/31 11:40:36;;;;;;;26.40;17.17;;;;;;;13.07;81.49;98495.12;5555356;32;33741;-57
2022/03/31 11:43:38;;;;;;;26.25;18.05;;;;;;;13.26;79.74;98481.06;5561096;32;33647;-57
2022/03/31 11:46:42;;;;;;;26.98;17.90;;;;;;;13.20;80.37;98481.63;5557552;32;33700;-57
2022/03/31 11:49:56;;;;;;;20.98;16.52;;;;;;;13.29;79.74;98474.22;5558660;32;33613;-57
2022/03/31 11:53:00;;;;;;;29.67;17.52;;;;;;;13.24;79.35;98477.94;5562675;32;33926;-57
2022/03/31 11:56:09;;;;;;;27.75;17.70;;;;;;;13.23;81.14;98476.34;5563388;32;33597;-57
2022/03/31 11:59:14;;;;;;;27.25;17.40;;;;;;;13.10;81.45;98483.69;5555514;32;33744;-57
2022/03/31 12:02:17;;;;;;;27.85;16.80;;;;;;;13.09;82.94;98471.38;5557148;32;34642;-57
2022/03/31 12:05:20;;;;;;;27.75;17.80;;;;;;;13.17;79.39;98458.88;5563246;32;32186;-57
2022/03/31 12:08:24;;;;;;;26.15;17.62;;;;;;;13.07;82.03;98448.63;5557887;32;33710;-57
2022/03/31 12:11:29;;;;;;;25.25;17.27;;;;;;;13.16;81.17;98428.50;5559971;32;34469;-57
2022/03/31 12:14:33;;;;;;;25.48;16.45;;;;;;;13.40;79.14;98419.53;5565490;32;34280;-57
2022/03/31 12:17:36;;;;;;;27.37;17.85;;;;;;;13.35;79.24;98405.56;5556561;32;33363;-57
2022/03/31 12:20:38;;;;;;;24.05;16.27;;;;;;;13.38;79.14;98410.25;5556560;32;34428;-57
2022/03/31 12:23:43;;;;;;;29.08;16.98;;;;;;;13.30;78.94;98420.03;5557720;32;34394;-57
2022/03/31 12:27:06;;;;;;;27.05;16.33;;;;;;;13.23;80.30;98419.06;5559617;32;33731;-57
2022/03/31 12:30:09;;;;;;;29.05;17.98;;;;;;;13.29;79.28;98406.94;5560200;32;33671;-57
2022/03/31 12:33:31;;;;;;;26.17;17.77;;;;;;;13.28;79.82;98408.09;5558156;32;33746;-57
2022/03/31 12:36:34;;;;;;;31.65;18.48;;;;;;;13.34;78.73;98402.09;5569331;32;34422;-57
2022/03/31 12:39:43;;;;;;;19.83;16.83;;;;;;;13.30;80.25;98408.50;5559690;32;33651;-57
2022/03/31 12:42:59;;;;;;;27.73;18.62;;;;;;;13.34;79.04;98394.03;5559957;32;33626;-57
2022/03/31 12:46:16;;;;;;;25.95;18.27;;;;;;;13.27;79.46;98409.19;5553291;32;33668;-57
2022/03/31 12:49:21;;;;;;;25.35;18.92;;;;;;;13.35;79.48;98405.56;5551167;32;33842;-57
2022/03/31 12:52:24;;;;;;;26.12;17.33;;;;;;;13.30;78.54;98411.97;5553778;32;34270;-57
2022/03/31 12:55:35;;;;;;;26.17;18.08;;;;;;;13.24;79.34;98397.22;5549741;32;33860;-57
2022/03/31 12:58:37;;;;;;;23.65;17.95;;;;;;;13.35;79.49;98400.97;5562880;32;34312;-57
2022/03/31 13:01:40;;;;;;;25.00;18.73;;;;;;;13.33;79.95;98389.75;5569325;32;34378;-57
2022/03/31 13:04:44;;;;;;;23.50;18.20;;;;;;;13.08;80.81;98396.41;5569785;32;34028;-57
2022/03/31 13:07:47;;;;;;;31.60;18.23;;;;;;;13.22;80.29;98396.75;5556624;32;34291;-57
2022/03/31 13:10:49;;;;;;;27.83;17.15;;;;;;;13.03;80.19;98400.09;5559638;32;33763;-57
2022/03/31 13:13:52;;;;;;;25.90;17.58;;;;;;;13.11;79.96;98396.50;5568935;32;33778;-57
2022/03/31 13:16:54;;;;;;;30.17;17.27;;;;;;;13.08;78.27;98393.72;5568141;32;33630;-54
2022/03/31 13:19:58;;;;;;;23.80;16.77;;;;;;;12.90;79.18;98390.53;5568934;32;34469;-54
2022/03/31 13:23:00;;;;;;;22.92;17.10;;;;;;;12.81;79.39;98397.97;5569451;32;34330;-55
2022/03/31 13:26:05;;;;;;;25.50;17.23;;;;;;;12.88;79.38;98390.91;5557997;32;33710;-55
2022/03/31 13:29:10;;;;;;;27.37;18.65;;;;;;;12.85;79.10;98388.13;5552067;32;33946;-55
2022/03/31 13:32:12;;;;;;;26.98;18.25;;;;;;;12.65;81.63;98387.19;5559886;32;34385;-55
2022/03/31 13:35:14;;;;;;;31.30;18.42;;;;;;;12.69;80.61;98372.72;5566193;32;33785;-55
2022/03/31 13:38:17;;;;;;;28.67;18.15;;;;;;;12.75;82.12;98367.88;5555188;32;33924;-54
2022/03/31 13:41:21;;;;;;;26.30;19.60;;;;;;;12.75;81.49;98364.38;5567250;32;34503;-55
2022/03/31 13:44:24;;;;;;;33.28;19.67;;;;;;;12.70;81.08;98368.88;5563124;32;34781;-54
2022/03/31 13:47:26;;;;;;;28.85;18.10;;;;;;;12.52;81.54;98359.56;5554981;32;34319;-54
2022/03/31 13:50:30;;;;;;;33.25;20.42;;;;;;;12.64;80.40;98356.03;5554804;32;33692;-57
2022/03/31 13:53:44;;;;;;;27.70;19.02;;;;;;;12.67;81.40;98341.91;5558162;32;33778;-57
2022/03/31 13:56:49;;;;;;;32.53;19.85;;;;;;;12.78;80.53;98339.50;5569197;32;33581;-57
2022/03/31 14:03:15;;;;;;;30.75;20.02;;;;;;;12.85;79.71;98331.66;5568335;32;34320;-57
2022/03/31 14:06:18;;;;;;;27.92;20.05;;;;;;;12.86;79.78;98325.13;5569102;32;34381;-57
2022/03/31 14:09:25;;;;;;;32.70;21.80;;;;;;;12.82;82.49;98319.66;5568373;32;34076;-57
2022/03/31 14:12:27;;;;;;;29.10;20.30;;;;;;;12.84;79.89;98322.00;5562957;32;33637;-57
2022/03/31 14:15:30;;;;;;;34.00;21.55;;;;;;;12.88;79.77;98312.09;5557611;32;33769;-57
2022/03/31 14:18:35;;;;;;;27.05;21.52;;;;;;;12.92;80.01;98304.94;5549922;32;34514;-57
2022/03/31 14:21:52;;;;;;;30.87;21.10;;;;;;;12.97;80.29;98298.50;5552163;32;33401;-57
2022/03/31 14:24:54;;;;;;;37.20;20.33;;;;;;;13.10;78.83;98295.38;5568280;32;33830;-57
2022/03/31 14:27:57;;;;;;;30.98;20.95;;;;;;;12.97;79.78;98285.84;5563966;32;34326;-57
2022/03/31 14:30:59;;;;;;;26.55;19.25;;;;;;;13.00;80.09;98287.84;5551590;32;34231;-57
2022/03/31 14:34:22;;;;;;;29.10;20.25;;;;;;;12.98;80.04;98294.69;5555800;32;33608;-57
2022/03/31 14:37:25;;;;;;;27.70;20.05;;;;;;;13.02;80.37;98292.88;5562547;32;34330;-57
2022/03/31 14:40:28;;;;;;;28.48;18.85;;;;;;;12.88;80.41;98285.22;5566707;32;33641;-57
2022/03/31 14:43:31;;;;;;;32.47;19.95;;;;;;;12.86;79.85;98285.56;5568495;32;33656;-57
2022/03/31 14:46:36;;;;;;;27.15;19.00;;;;;;;12.68;81.52;98281.62;5565686;32;33758;-57
2022/03/31 14:49:38;;;;;;;23.42;18.02;;;;;;;12.79;81.36;98271.97;5567648;32;34209;-56
2022/03/31 14:52:41;;;;;;;24.40;17.00;;;;;;;12.93;80.23;98271.53;5565585;32;34302;-57
2022/03/31 14:55:43;;;;;;;24.10;17.65;;;;;;;12.87;80.40;98267.53;5566878;32;33626;-56
2022/03/31 14:58:49;;;;;;;27.42;18.90;;;;;;;12.80;82.08;98264.66;5567125;32;34917;-57
2022/03/31 15:01:52;;;;;;;26.50;16.80;;;;;;;12.66;84.01;98260.50;5568320;32;34325;-57
2022/03/31 15:04:54;;;;;;;26.23;17.08;;;;;;;12.65;82.14;98256.25;5568296;32;33787;-57
2022/03/31 15:07:58;;;;;;;23.45;17.25;;;;;;;12.76;82.55;98255.72;5529687;32;34191;-57
2022/03/31 15:14:33;;;;;;;21.05;15.75;;;;;;;12.84;81.72;98249.41;5529241;32;34360;-57
2022/03/31 15:17:35;;;;;;;21.45;15.32;;;;;;;12.83;81.74;98248.63;5529389;32;34317;-57
2022/03/31 15:20:38;;;;;;;20.75;14.30;;;;;;;12.96;81.06;98235.88;5523802;32;34179;-57
2022/03/31 15:23:42;;;;;;;19.83;15.48;;;;;;;12.96;80.75;98233.19;5529440;32;33744;-57
2022/03/31 15:26:45;;;;;;;23.45;15.90;;;;;;;13.00;80.99;98234.03;5529893;32;33741;-57
2022/03/31 15:29:49;;;;;;;20.77;15.40;;;;;;;12.87;81.67;98232.56;5529304;32;33548;-57
2022/03/31 15:32:51;;;;;;;21.90;16.77;;;;;;;12.77;82.49;98231.19;5528069;32;33762;-57
2022/03/31 15:35:54;;;;;;;21.00;16.02;;;;;;;12.86;81.79;98228.31;5529564;32;34363;-57
2022/03/31 15:38:56;;;;;;;24.37;15.27;;;;;;;12.82;82.72;98230.94;5527440;32;33232;-57
2022/03/31 15:41:58;;;;;;;18.08;14.77;;;;;;;12.84;82.28;98219.81;5528139;32;33700;-57
2022/03/31 15:45:00;;;;;;;22.80;14.93;;;;;;;13.00;81.33;98225.97;5518551;32;33639;-57
2022/03/31 15:48:04;;;;;;;21.15;15.43;;;;;;;12.97;82.05;98221.28;5529664;32;33715;-57
2022/03/31 15:51:07;;;;;;;23.75;15.77;;;;;;;12.98;82.49;98211.31;5524711;32;33844;-57
2022/03/31 15:54:09;;;;;;;17.73;14.07;;;;;;;12.92;83.31;98206.22;5528632;32;34375;-57
2022/03/31 15:57:12;;;;;;;19.27;15.30;;;;;;;12.85;82.24;98210.66;5529292;32;33776;-57
2022/03/31 16:00:16;;;;;;;20.88;14.52;;;;;;;12.85;82.22;98189.91;5529666;32;34325;-57
2022/03/31 16:03:18;;;;;;;18.15;13.70;;;;;;;12.86;83.10;98194.16;5526509;32;34402;-57
2022/03/31 16:06:22;;;;;;;20.10;15.48;;;;;;;12.88;83.15;98196.47;5539520;32;33736;-57
2022/03/31 16:09:27;;;;;;;19.08;14.00;;;;;;;12.72;84.65;98193.03;5561929;32;33726;-57
2022/03/31 16:12:30;;;;;;;16.08;13.98;;;;;;;12.81;84.17;98185.56;5548953;32;33624;-57
2022/03/31 16:15:34;;;;;;;18.60;13.85;;;;;;;12.80;84.34;98182.09;5552733;32;33507;-57
2022/03/31 16:18:36;;;;;;;17.65;13.30;;;;;;;12.85;84.35;98181.84;5567081;32;33437;-57
2022/03/31 16:21:38;;;;;;;16.15;13.35;;;;;;;12.99;83.27;98169.84;5567861;32;33386;-57
2022/03/31 16:24:40;;;;;;;16.55;13.18;;;;;;;13.03;82.61;98174.16;5567685;32;33959;-57
2022/03/31 16:27:43;;;;;;;17.05;12.63;;;;;;;13.06;83.56;98159.25;5555112;32;33490;-57
2022/03/31 16:30:49;;;;;;;18.33;13.27;;;;;;;13.12;82.86;98161.31;5563721;32;33742;-57
2022/03/31 16:33:52;;;;;;;16.02;12.10;;;;;;;13.08;82.90;98163.16;5551782;32;33280;-57
